createdAt,value
2019-05-29T00:01:19.789Z,12.78
2019-05-29T00:03:47.865Z,10.13
2019-05-29T00:06:18.608Z,9.80
2019-05-29T00:08:48.807Z,10.05
2019-05-29T00:11:18.901Z,9.25
2019-05-29T00:13:49.120Z,9.50
2019-05-29T00:16:19.442Z,10.55
2019-05-29T00:18:49.712Z,9.65
2019-05-29T00:21:20.316Z,9.40
2019-05-29T00:23:50.633Z,9.27
2019-05-29T00:26:20.861Z,10.00
2019-05-29T00:28:51.191Z,9.80
2019-05-29T00:31:21.523Z,9.33
2019-05-29T00:33:51.845Z,8.03
2019-05-29T00:36:21.922Z,7.15
2019-05-29T00:38:52.060Z,9.10
2019-05-29T00:41:22.943Z,10.13
2019-05-29T00:43:53.353Z,10.75
2019-05-29T00:46:23.510Z,14.33
2019-05-29T00:48:53.878Z,11.83
2019-05-29T00:51:24.241Z,9.60
2019-05-29T00:53:54.542Z,8.43
2019-05-29T00:56:24.853Z,9.13
2019-05-29T00:58:55.534Z,9.73
2019-05-29T01:01:25.783Z,8.60
2019-05-29T01:03:55.826Z,9.15
2019-05-29T01:06:26.310Z,8.40
2019-05-29T01:08:56.318Z,9.30
2019-05-29T01:11:26.900Z,8.43
2019-05-29T01:13:56.978Z,7.95
2019-05-29T01:16:27.161Z,8.48
2019-05-29T01:18:58.734Z,8.60
2019-05-29T01:21:29.035Z,8.45
2019-05-29T01:23:59.338Z,8.90
2019-05-29T01:26:29.656Z,7.05
2019-05-29T01:29:00.119Z,7.25
2019-05-29T01:31:30.404Z,7.92
2019-05-29T01:34:00.708Z,8.78
2019-05-29T01:36:30.926Z,7.10
2019-05-29T01:39:01.143Z,7.50
2019-05-29T01:41:31.521Z,7.30
2019-05-29T01:44:01.968Z,6.55
2019-05-29T01:46:32.419Z,6.97
2019-05-29T01:49:02.905Z,6.62
2019-05-29T01:51:33.132Z,7.08
2019-05-29T01:54:03.450Z,7.25
2019-05-29T01:56:33.905Z,6.85
2019-05-29T01:59:04.279Z,7.03
2019-05-29T02:01:34.548Z,6.60
2019-05-29T02:04:04.920Z,6.73
2019-05-29T02:06:35.342Z,6.40
2019-05-29T02:09:07.825Z,5.90
2019-05-29T02:11:38.050Z,6.47
2019-05-29T02:14:09.140Z,6.83
2019-05-29T02:16:39.480Z,6.87
2019-05-29T02:19:10.146Z,6.60
2019-05-29T02:21:40.542Z,6.40
2019-05-29T02:24:10.844Z,6.63
2019-05-29T02:26:41.199Z,6.92
2019-05-29T02:29:11.609Z,6.53
2019-05-29T02:31:41.866Z,6.53
2019-05-29T02:34:12.316Z,6.45
2019-05-29T02:36:42.569Z,6.73
2019-05-29T02:39:12.883Z,6.70
2019-05-29T02:41:43.300Z,7.17
2019-05-29T02:44:13.461Z,6.90
2019-05-29T02:46:43.740Z,6.67
2019-05-29T02:49:14.326Z,6.97
2019-05-29T02:51:44.942Z,7.37
2019-05-29T02:54:15.153Z,6.90
2019-05-29T02:56:45.546Z,6.67
2019-05-29T02:59:15.941Z,7.53
2019-05-29T03:01:46.547Z,7.25
2019-05-29T03:04:17.339Z,7.08
2019-05-29T03:06:47.953Z,6.70
2019-05-29T03:09:18.292Z,7.47
2019-05-29T03:11:48.728Z,7.40
2019-05-29T03:14:19.146Z,7.60
2019-05-29T03:16:49.598Z,7.58
2019-05-29T03:19:20.319Z,8.55
2019-05-29T03:21:50.706Z,7.47
2019-05-29T03:24:21.289Z,7.17
2019-05-29T03:26:51.882Z,7.17
2019-05-29T03:29:22.103Z,6.90
2019-05-29T03:31:52.736Z,7.12
2019-05-29T03:34:22.977Z,6.90
2019-05-29T03:36:53.509Z,7.05
2019-05-29T03:39:23.647Z,7.47
2019-05-29T03:41:53.936Z,7.45
2019-05-29T03:44:24.145Z,6.75
2019-05-29T03:46:54.561Z,6.80
2019-05-29T03:50:20.283Z,6.90
2019-05-29T03:52:51.016Z,6.15
2019-05-29T03:55:21.922Z,6.50
2019-05-29T03:57:52.430Z,6.37
2019-05-29T04:00:23.768Z,6.40
2019-05-29T04:02:54.156Z,6.40
2019-05-29T04:05:24.351Z,6.30
2019-05-29T04:07:54.953Z,5.80
2019-05-29T04:10:29.350Z,5.70
2019-05-29T04:13:01.797Z,5.80
2019-05-29T04:15:35.705Z,5.65
2019-05-29T04:18:07.081Z,5.15
2019-05-29T04:20:38.879Z,5.40
2019-05-29T04:23:09.707Z,5.92
2019-05-29T04:25:42.777Z,5.75
2019-05-29T04:28:12.749Z,5.90
2019-05-29T04:30:43.085Z,5.97
2019-05-29T04:33:13.468Z,5.53
2019-05-29T04:35:43.686Z,5.65
2019-05-29T04:38:14.113Z,5.90
2019-05-29T04:40:44.457Z,5.70
2019-05-29T04:43:14.671Z,5.97
2019-05-29T04:45:45.174Z,5.42
2019-05-29T04:48:15.417Z,4.80
2019-05-29T04:50:46.212Z,5.30
2019-05-29T04:53:16.435Z,6.03
2019-05-29T04:55:46.767Z,5.67
2019-05-29T04:58:17.118Z,5.58
2019-05-29T05:00:58.640Z,5.55
2019-05-29T05:03:19.099Z,5.77
2019-05-29T05:05:49.690Z,5.40
2019-05-29T05:08:19.904Z,5.45
2019-05-29T05:10:50.323Z,4.95
2019-05-29T05:13:21.324Z,5.37
2019-05-29T05:15:53.042Z,5.00
2019-05-29T05:18:23.424Z,5.58
2019-05-29T05:20:54.733Z,5.72
2019-05-29T05:23:25.441Z,4.10
2019-05-29T05:25:55.668Z,4.90
2019-05-29T05:28:26.101Z,4.65
2019-05-29T05:30:56.240Z,4.67
2019-05-29T05:33:26.572Z,5.00
2019-05-29T05:35:57.263Z,5.17
2019-05-29T05:38:27.711Z,5.20
2019-05-29T05:40:57.893Z,5.05
2019-05-29T05:43:28.321Z,4.47
2019-05-29T05:45:58.766Z,4.80
2019-05-29T05:48:28.930Z,4.45
2019-05-29T05:50:59.570Z,5.20
2019-05-29T05:53:31.235Z,4.90
2019-05-29T05:56:01.771Z,5.28
2019-05-29T05:58:31.939Z,4.80
2019-05-29T06:01:03.525Z,5.15
2019-05-29T06:03:34.048Z,4.90
2019-05-29T06:06:04.272Z,5.83
2019-05-29T06:08:34.620Z,4.80
2019-05-29T06:11:04.748Z,4.50
2019-05-29T06:13:36.233Z,4.60
2019-05-29T06:16:06.979Z,4.53
2019-05-29T06:18:38.458Z,4.60
2019-05-29T06:21:08.582Z,4.72
2019-05-29T06:23:38.915Z,4.60
2019-05-29T06:26:09.304Z,4.70
2019-05-29T06:28:39.760Z,4.65
2019-05-29T06:31:11.024Z,4.90
2019-05-29T06:33:43.809Z,4.20
2019-05-29T06:36:14.226Z,4.12
2019-05-29T06:38:44.639Z,3.90
2019-05-29T06:41:15.084Z,4.00
2019-05-29T06:43:45.342Z,4.20
2019-05-29T06:46:15.656Z,4.37
2019-05-29T06:48:58.817Z,3.72
2019-05-29T06:51:17.463Z,3.87
2019-05-29T06:53:48.353Z,3.80
2019-05-29T06:56:18.793Z,4.40
2019-05-29T06:58:49.079Z,4.25
2019-05-29T07:01:19.367Z,4.30
2019-05-29T07:03:49.709Z,3.85
2019-05-29T07:06:19.929Z,3.95
2019-05-29T07:08:50.350Z,3.75
2019-05-29T07:11:20.673Z,3.62
2019-05-29T07:13:51.079Z,3.37
2019-05-29T07:16:21.707Z,3.60
2019-05-29T07:21:23.917Z,4.00
2019-05-29T07:23:54.164Z,3.60
2019-05-29T07:26:24.501Z,3.67
2019-05-29T07:29:07.111Z,3.43
2019-05-29T07:31:26.815Z,3.80
2019-05-29T07:33:57.142Z,3.60
2019-05-29T07:36:27.583Z,4.00
2019-05-29T07:39:03.705Z,4.05
2019-05-29T07:41:29.654Z,3.55
2019-05-29T07:43:59.908Z,3.67
2019-05-29T07:46:30.265Z,3.27
2019-05-29T07:49:00.742Z,3.87
2019-05-29T07:51:31.059Z,3.30
2019-05-29T07:54:01.330Z,3.60
2019-05-29T07:56:31.646Z,3.37
2019-05-29T07:59:03.528Z,3.37
2019-05-29T08:01:33.500Z,3.30
2019-05-29T08:04:03.579Z,3.50
2019-05-29T08:06:34.123Z,3.80
2019-05-29T08:09:05.594Z,3.30
2019-05-29T08:11:36.050Z,3.60
2019-05-29T08:14:06.635Z,4.17
2019-05-29T08:16:36.893Z,3.87
2019-05-29T08:19:08.110Z,3.87
2019-05-29T08:21:38.637Z,3.45
2019-05-29T08:24:09.125Z,3.60
2019-05-29T08:26:40.662Z,3.92
2019-05-29T08:29:11.221Z,3.70
2019-05-29T08:31:42.659Z,3.70
2019-05-29T08:34:13.020Z,3.50
2019-05-29T08:37:01.120Z,3.40
2019-05-29T08:39:33.014Z,3.60
2019-05-29T08:42:06.164Z,3.40
2019-05-29T08:44:18.305Z,3.25
2019-05-29T08:47:08.206Z,3.15
2019-05-29T08:49:20.413Z,3.15
2019-05-29T08:51:52.286Z,3.47
2019-05-29T08:54:24.220Z,3.43
2019-05-29T08:56:54.650Z,3.60
2019-05-29T08:59:24.818Z,3.70
2019-05-29T09:01:55.657Z,3.50
2019-05-29T09:04:25.950Z,3.30
2019-05-29T09:06:56.132Z,3.40
2019-05-29T09:09:26.481Z,3.55
2019-05-29T09:11:56.740Z,3.77
2019-05-29T09:14:27.067Z,3.25
2019-05-29T09:16:57.241Z,3.40
2019-05-29T09:19:27.665Z,3.08
2019-05-29T09:21:58.058Z,3.00
2019-05-29T09:24:28.350Z,4.37
2019-05-29T09:26:58.609Z,3.47
2019-05-29T09:29:29.100Z,3.40
2019-05-29T09:31:59.488Z,3.20
2019-05-29T09:34:29.949Z,3.30
2019-05-29T09:38:41.779Z,3.20
2019-05-29T09:41:12.315Z,3.30
2019-05-29T09:43:57.727Z,3.20
2019-05-29T09:46:15.194Z,3.30
2019-05-29T09:48:49.630Z,3.20
2019-05-29T09:51:21.321Z,3.25
2019-05-29T09:53:48.942Z,4.25
2019-05-29T09:56:19.225Z,3.77
2019-05-29T09:58:53.585Z,4.28
2019-05-29T10:01:24.367Z,3.35
2019-05-29T10:03:56.391Z,4.83
2019-05-29T10:06:25.724Z,4.17
2019-05-29T10:08:56.274Z,4.30
2019-05-29T10:11:27.187Z,4.40
2019-05-29T10:13:58.738Z,4.07
2019-05-29T10:16:29.474Z,5.00
2019-05-29T10:19:00.420Z,19.42
2019-05-29T10:21:39.973Z,4.50
2019-05-29T10:24:04.160Z,4.65
2019-05-29T10:26:34.811Z,4.30
2019-05-29T10:29:09.211Z,3.90
2019-05-29T10:31:36.913Z,3.92
2019-05-29T10:34:07.536Z,4.00
2019-05-29T10:36:37.804Z,3.87
2019-05-29T10:39:12.552Z,3.90
2019-05-29T10:41:42.570Z,3.90
2019-05-29T10:44:13.290Z,4.37
2019-05-29T10:46:46.142Z,4.92
2019-05-29T10:49:15.486Z,5.35
2019-05-29T10:52:00.340Z,4.03
2019-05-29T10:54:17.473Z,4.15
2019-05-29T10:56:48.794Z,4.25
2019-05-29T10:59:19.303Z,4.20
2019-05-29T11:01:51.134Z,4.15
2019-05-29T11:04:21.287Z,4.15
2019-05-29T11:06:52.566Z,4.57
2019-05-29T11:09:23.290Z,3.98
2019-05-29T11:11:55.246Z,3.60
2019-05-29T11:14:25.420Z,3.67
2019-05-29T11:16:57.410Z,4.92
2019-05-29T11:19:27.374Z,3.00
2019-05-29T11:22:05.717Z,2.92
2019-05-29T11:24:29.466Z,2.80
2019-05-29T11:26:59.775Z,2.70
2019-05-29T11:29:29.955Z,2.70
2019-05-29T11:32:00.407Z,2.50
2019-05-29T11:34:30.950Z,2.50
2019-05-29T11:37:01.125Z,2.50
2019-05-29T11:39:31.526Z,2.50
2019-05-29T11:42:03.035Z,3.72
2019-05-29T11:44:33.513Z,2.72
2019-05-29T11:47:03.723Z,2.60
2019-05-29T11:49:34.241Z,2.40
2019-05-29T11:52:22.837Z,2.60
2019-05-29T11:54:36.107Z,2.60
2019-05-29T11:57:06.775Z,2.27
2019-05-29T11:59:36.864Z,3.02
2019-05-29T12:02:07.407Z,3.25
2019-05-29T12:04:37.964Z,5.08
2019-05-29T12:07:08.297Z,4.97
2019-05-29T12:09:38.408Z,5.77
2019-05-29T12:12:08.710Z,5.78
2019-05-29T12:14:58.295Z,5.70
2019-05-29T12:17:10.827Z,3.98
2019-05-29T12:19:41.264Z,3.47
2019-05-29T12:22:11.603Z,12.53
2019-05-29T12:24:42.231Z,5.20
2019-05-29T12:27:12.480Z,4.72
2019-05-29T12:29:42.809Z,4.60
2019-05-29T12:32:13.141Z,5.05
2019-05-29T12:34:53.265Z,4.30
2019-05-29T12:37:15.095Z,4.67
2019-05-29T12:39:45.786Z,4.47
2019-05-29T12:42:16.500Z,4.53
2019-05-29T12:44:46.936Z,4.47
2019-05-29T12:47:17.462Z,4.90
2019-05-29T12:49:48.381Z,5.20
2019-05-29T12:52:19.288Z,4.53
2019-05-29T12:54:50.212Z,9.63
2019-05-29T12:57:23.507Z,17.92
2019-05-29T12:59:53.929Z,16.67
2019-05-29T13:02:24.417Z,7.30
2019-05-29T13:05:18.374Z,5.95
2019-05-29T13:07:27.317Z,7.50
2019-05-29T13:09:58.797Z,7.05
2019-05-29T13:12:29.496Z,7.17
2019-05-29T13:15:00.750Z,6.35
2019-05-29T13:17:31.440Z,6.12
2019-05-29T13:20:16.968Z,6.67
2019-05-29T13:22:33.560Z,21.40
2019-05-29T13:25:05.426Z,16.70
2019-05-29T13:27:35.772Z,8.80
2019-05-29T13:30:08.754Z,5.62
2019-05-29T13:32:39.152Z,5.90
2019-05-29T13:35:09.980Z,7.87
2019-05-29T13:37:40.182Z,8.30
2019-05-29T13:40:10.977Z,7.20
2019-05-29T13:42:41.804Z,6.67
2019-05-29T13:45:18.152Z,6.22
2019-05-29T13:47:46.100Z,6.15
2019-05-29T13:50:16.671Z,5.85
2019-05-29T13:52:46.854Z,6.20
2019-05-29T13:55:19.210Z,5.60
2019-05-29T13:57:49.493Z,6.67
2019-05-29T14:00:35.637Z,6.70
2019-05-29T14:02:52.052Z,6.28
2019-05-29T14:05:22.507Z,6.97
2019-05-29T14:07:52.620Z,6.37
2019-05-29T14:10:23.398Z,6.03
2019-05-29T14:12:53.896Z,5.47
2019-05-29T14:15:24.391Z,4.92
2019-05-29T14:17:54.825Z,4.83
2019-05-29T14:20:25.384Z,5.22
2019-05-29T14:22:55.565Z,4.03
2019-05-29T14:25:25.954Z,4.03
2019-05-29T14:27:56.129Z,3.90
2019-05-29T14:30:26.536Z,3.70
2019-05-29T14:32:56.871Z,3.80
2019-05-29T14:35:27.341Z,3.50
2019-05-29T14:37:57.609Z,3.90
2019-05-29T14:40:28.603Z,4.05
2019-05-29T14:42:58.921Z,4.80
2019-05-29T14:45:29.736Z,4.78
2019-05-29T14:47:59.966Z,7.45
2019-05-29T14:50:30.268Z,4.95
2019-05-29T14:53:00.471Z,5.42
2019-05-29T14:55:30.759Z,4.80
2019-05-29T14:58:01.014Z,5.43
2019-05-29T15:00:31.502Z,5.20
2019-05-29T15:03:03.211Z,5.00
2019-05-29T15:05:33.523Z,5.28
2019-05-29T15:08:03.895Z,4.67
2019-05-29T15:10:34.359Z,4.53
2019-05-29T15:13:06.320Z,4.60
2019-05-29T15:15:36.381Z,4.60
2019-05-29T15:18:07.000Z,6.12
2019-05-29T15:20:37.564Z,5.70
2019-05-29T15:23:09.191Z,5.80
2019-05-29T15:25:39.622Z,6.70
2019-05-29T15:28:13.614Z,6.53
2019-05-29T15:30:41.588Z,6.40
2019-05-29T15:33:12.643Z,4.80
2019-05-29T15:35:42.984Z,3.50
2019-05-29T15:38:13.319Z,3.08
2019-05-29T15:40:43.715Z,3.73
2019-05-29T15:43:15.280Z,3.37
2019-05-29T15:45:45.617Z,3.60
2019-05-29T15:48:17.397Z,3.52
2019-05-29T15:50:47.832Z,3.10
2019-05-29T15:53:18.477Z,3.20
2019-05-29T15:55:48.705Z,3.20
2019-05-29T15:58:19.123Z,2.92
2019-05-29T16:00:49.758Z,3.30
2019-05-29T16:03:19.994Z,3.62
2019-05-29T16:05:50.228Z,3.70
2019-05-29T16:08:20.735Z,3.77
2019-05-29T16:10:50.985Z,3.47
2019-05-29T16:13:21.405Z,3.55
2019-05-29T16:15:51.903Z,3.70
2019-05-29T16:18:28.074Z,2.80
2019-05-29T16:20:53.868Z,2.98
2019-05-29T16:23:35.051Z,2.73
2019-05-29T16:25:55.677Z,3.00
2019-05-29T16:28:25.948Z,3.40
2019-05-29T16:30:56.453Z,4.40
2019-05-29T16:33:26.731Z,4.10
2019-05-29T16:35:56.824Z,3.83
2019-05-29T16:38:27.334Z,3.60
2019-05-29T16:40:57.343Z,3.75
2019-05-29T16:43:28.408Z,3.62
2019-05-29T16:45:58.590Z,3.30
2019-05-29T16:48:28.808Z,3.90
2019-05-29T16:50:59.459Z,3.42
2019-05-29T16:53:29.611Z,3.30
2019-05-29T16:55:59.935Z,3.50
2019-05-29T16:58:30.148Z,3.70
2019-05-29T17:01:00.845Z,3.42
2019-05-29T17:03:31.084Z,3.40
2019-05-29T17:06:01.313Z,3.15
2019-05-29T17:08:31.572Z,3.37
2019-05-29T17:11:04.868Z,3.55
2019-05-29T17:13:33.616Z,2.98
2019-05-29T17:16:03.814Z,3.10
2019-05-29T17:18:34.155Z,3.30
2019-05-29T17:21:04.504Z,3.40
2019-05-29T17:23:34.808Z,3.27
2019-05-29T17:26:10.749Z,3.03
2019-05-29T17:28:36.940Z,2.92
2019-05-29T17:31:07.340Z,3.00
2019-05-29T17:33:37.611Z,2.75
2019-05-29T17:36:07.980Z,2.90
2019-05-29T17:38:38.331Z,2.80
2019-05-29T17:41:08.788Z,3.00
2019-05-29T17:43:39.080Z,3.08
2019-05-29T17:46:09.405Z,2.58
2019-05-29T17:48:39.807Z,2.55
2019-05-29T17:51:10.010Z,2.62
2019-05-29T17:53:40.415Z,2.30
2019-05-29T17:56:25.250Z,2.37
2019-05-29T17:58:42.552Z,2.27
2019-05-29T18:01:12.838Z,2.47
2019-05-29T18:03:43.298Z,2.22
2019-05-29T18:06:13.508Z,2.67
2019-05-29T18:08:43.787Z,2.80
2019-05-29T18:11:14.202Z,2.35
2019-05-29T18:13:44.498Z,2.20
2019-05-29T18:16:14.752Z,2.20
2019-05-29T18:18:45.279Z,2.20
2019-05-29T18:21:15.527Z,2.22
2019-05-29T18:23:48.532Z,2.40
2019-05-29T18:26:21.974Z,2.62
2019-05-29T18:28:52.457Z,2.35
2019-05-29T18:31:22.685Z,2.43
2019-05-29T18:33:52.935Z,2.62
2019-05-29T18:36:23.276Z,2.12
2019-05-29T18:38:53.774Z,2.30
2019-05-29T18:41:24.393Z,2.55
2019-05-29T18:43:55.128Z,2.30
2019-05-29T18:46:25.432Z,2.58
2019-05-29T18:48:55.659Z,2.30
2019-05-29T18:51:26.575Z,2.55
2019-05-29T18:53:56.795Z,2.70
2019-05-29T18:56:28.100Z,2.47
2019-05-29T18:58:58.487Z,2.50
2019-05-29T19:01:30.026Z,2.70
2019-05-29T19:04:00.477Z,2.80
2019-05-29T19:06:31.774Z,2.45
2019-05-29T19:09:02.270Z,2.60
2019-05-29T19:11:32.476Z,2.93
2019-05-29T19:14:02.891Z,2.77
2019-05-29T19:16:33.213Z,2.70
2019-05-29T19:19:03.511Z,2.80
2019-05-29T19:21:33.930Z,3.10
2019-05-29T19:24:04.205Z,3.25
2019-05-29T19:26:36.791Z,3.20
2019-05-29T19:29:06.483Z,3.20
2019-05-29T19:31:36.994Z,3.60
2019-05-29T19:34:07.294Z,3.70
2019-05-29T19:36:37.797Z,3.52
2019-05-29T19:39:09.924Z,3.85
2019-05-29T19:41:40.013Z,3.80
2019-05-29T19:44:10.452Z,3.70
2019-05-29T19:46:53.140Z,3.62
2019-05-29T19:49:12.257Z,4.12
2019-05-29T19:51:42.495Z,4.50
2019-05-29T19:54:12.706Z,4.50
2019-05-29T19:56:43.018Z,5.10
2019-05-29T19:59:13.364Z,4.70
2019-05-29T20:01:43.561Z,4.92
2019-05-29T20:04:14.079Z,4.80
2019-05-29T20:06:44.209Z,4.80
2019-05-29T20:09:14.628Z,4.58
2019-05-29T20:11:45.004Z,4.80
2019-05-29T20:14:15.286Z,5.53
2019-05-29T20:16:45.568Z,5.20
2019-05-29T20:19:15.837Z,5.30
2019-05-29T20:21:45.939Z,5.55
2019-05-29T20:24:16.087Z,6.28
2019-05-29T20:26:46.362Z,5.83
2019-05-29T20:29:16.574Z,5.75
2019-05-29T20:31:47.116Z,5.58
2019-05-29T20:34:17.405Z,5.67
2019-05-29T20:36:47.903Z,5.17
2019-05-29T20:39:18.273Z,5.05
2019-05-29T20:41:48.528Z,4.78
2019-05-29T20:44:18.945Z,4.90
2019-05-29T20:46:49.385Z,4.33
2019-05-29T20:49:19.491Z,4.33
2019-05-29T20:51:49.824Z,4.50
2019-05-29T20:54:20.252Z,4.13
2019-05-29T20:56:50.601Z,4.55
2019-05-29T20:59:20.840Z,4.45
2019-05-29T21:01:51.329Z,4.20
2019-05-29T21:04:21.624Z,4.50
2019-05-29T21:06:51.918Z,4.45
2019-05-29T21:09:22.114Z,4.50
2019-05-29T21:11:52.390Z,4.42
2019-05-29T21:14:22.783Z,4.55
2019-05-29T21:16:53.019Z,5.30
2019-05-29T21:19:23.189Z,4.90
2019-05-29T21:21:53.569Z,4.90
2019-05-29T21:24:23.969Z,5.12
2019-05-29T21:26:54.066Z,4.83
2019-05-29T21:29:24.241Z,4.78
2019-05-29T21:31:54.585Z,4.75
2019-05-29T21:34:25.274Z,4.80
2019-05-29T21:36:55.399Z,4.75
2019-05-29T21:39:25.856Z,4.92
2019-05-29T21:41:56.077Z,4.90
2019-05-29T21:44:26.392Z,4.90
2019-05-29T21:46:56.808Z,5.40
2019-05-29T21:49:30.870Z,5.30
2019-05-29T21:51:58.948Z,5.50
2019-05-29T21:54:29.232Z,6.30
2019-05-29T21:56:59.572Z,6.80
2019-05-29T21:59:29.996Z,7.40
2019-05-29T22:02:00.485Z,7.67
2019-05-29T22:04:30.730Z,7.50
2019-05-29T22:07:01.192Z,7.30
2019-05-29T22:09:31.314Z,7.67
2019-05-29T22:12:01.757Z,7.47
2019-05-29T22:14:32.258Z,7.30
2019-05-29T22:17:02.497Z,6.50
2019-05-29T22:19:33.050Z,5.75
2019-05-29T22:22:03.384Z,5.62
2019-05-29T22:24:33.532Z,5.60
2019-05-29T22:27:03.976Z,5.78
2019-05-29T22:29:34.464Z,5.50
2019-05-29T22:32:04.442Z,5.35
2019-05-29T22:34:34.764Z,5.25
2019-05-29T22:37:05.277Z,5.05
2019-05-29T22:39:35.458Z,5.37
2019-05-29T22:42:05.709Z,5.22
2019-05-29T22:44:35.852Z,6.10
2019-05-29T22:47:06.060Z,6.28
2019-05-29T22:49:37.687Z,6.37
2019-05-29T22:52:08.244Z,6.30
2019-05-29T22:54:38.783Z,6.55
2019-05-29T22:57:09.123Z,6.45
2019-05-29T22:59:39.327Z,6.78
2019-05-29T23:02:09.655Z,6.92
2019-05-29T23:04:40.029Z,6.08
2019-05-29T23:07:10.355Z,6.47
2019-05-29T23:09:40.549Z,6.70
2019-05-29T23:12:10.905Z,5.80
2019-05-29T23:14:41.123Z,6.20
2019-05-29T23:17:11.521Z,6.50
2019-05-29T23:19:42.031Z,5.97
2019-05-29T23:22:12.255Z,6.17
2019-05-29T23:24:42.389Z,6.37
2019-05-29T23:27:12.856Z,7.10
2019-05-29T23:29:48.974Z,8.08
2019-05-29T23:32:14.575Z,7.75
2019-05-29T23:34:44.821Z,6.83
2019-05-29T23:37:15.180Z,14.30
2019-05-29T23:39:45.490Z,7.42
2019-05-29T23:42:15.789Z,7.00
2019-05-29T23:44:45.999Z,7.10
2019-05-29T23:47:16.303Z,6.87
2019-05-29T23:49:46.605Z,7.28
2019-05-29T23:52:16.783Z,7.33
2019-05-29T23:54:46.974Z,6.87
2019-05-29T23:57:17.180Z,7.33
2019-05-29T23:59:47.409Z,7.80
